Time;durP1;ratioP1;P1;durP2;ratioP2;P2;SDS_P1;SDS_P2;PMS_P1;PMS_P2;Temp;Humidity;BMP_temperature;BMP_pressure;BME280_temperature;BME280_humidity;BME280_pressure;Samples;Min_cycle;Max_cycle;Signal;HPM_P1;HPM_P2
2022/12/02 00:01:37;;;;;;;19.1;11.4;;;;;;;0.4;85.8;99650;;;;
2022/12/02 00:11:37;;;;;;;19.5;10.3;;;;;;;0.4;86;99650;;;;
2022/12/02 00:22:37;;;;;;;19.5;10.3;;;;;;;0.4;85.9;99640;;;;
2022/12/02 00:33:37;;;;;;;19.5;10.3;;;;;;;0.4;85.8;99640;;;;
2022/12/02 00:53:37;;;;;;;19.6;9.2;;;;;;;0.3;85.7;99630;;;;
2022/12/02 01:04:37;;;;;;;19.6;9.2;;;;;;;0.2;85.7;99630;;;;
2022/12/02 01:15:37;;;;;;;16.6;8.7;;;;;;;0.3;85.6;99620;;;;
2022/12/02 01:25:37;;;;;;;16.6;8.7;;;;;;;0.4;85.7;99620;;;;
2022/12/02 01:36:37;;;;;;;18.3;9.8;;;;;;;0.2;85.4;99610;;;;
2022/12/02 01:47:37;;;;;;;18.3;9.8;;;;;;;0.1;85.3;99610;;;;
2022/12/02 01:58:37;;;;;;;18.3;9.8;;;;;;;0.1;85.9;99610;;;;
2022/12/02 02:08:37;;;;;;;15.3;9.7;;;;;;;0.3;85.5;99600;;;;
2022/12/02 02:19:37;;;;;;;15.3;9.7;;;;;;;0.2;85.1;99600;;;;
2022/12/02 02:29:37;;;;;;;15.3;9.7;;;;;;;0.1;84.9;99600;;;;
2022/12/02 02:40:37;;;;;;;19.7;11.4;;;;;;;0.1;85;99600;;;;
2022/12/02 02:51:37;;;;;;;19.7;11.4;;;;;;;0.1;85.2;99590;;;;
2022/12/02 03:02:37;;;;;;;19.7;11.4;;;;;;;0.2;85.1;99580;;;;
2022/12/02 03:12:37;;;;;;;19;10.2;;;;;;;0.2;85.1;99580;;;;
2022/12/02 03:22:37;;;;;;;19;10.2;;;;;;;0.2;84.4;99570;;;;
2022/12/02 03:33:37;;;;;;;19;10.2;;;;;;;0.1;84.8;99570;;;;
2022/12/02 03:44:37;;;;;;;21.8;11;;;;;;;0.1;85.1;99570;;;;
2022/12/02 03:54:37;;;;;;;21.8;11;;;;;;;0.2;85;99560;;;;
2022/12/02 04:05:37;;;;;;;21.8;11;;;;;;;0.2;85;99560;;;;
2022/12/02 04:16:37;;;;;;;17.6;9.1;;;;;;;0.1;85.4;99560;;;;
2022/12/02 04:26:37;;;;;;;17.6;9.1;;;;;;;0.1;85.8;99560;;;;
2022/12/02 04:36:37;;;;;;;19;9.7;;;;;;;0.2;85.6;99560;;;;
2022/12/02 04:46:37;;;;;;;19;9.7;;;;;;;0.1;85.5;99560;;;;
2022/12/02 04:57:37;;;;;;;19;9.7;;;;;;;0;85.6;99560;;;;
2022/12/02 05:07:37;;;;;;;20.2;10.8;;;;;;;0.1;86;99560;;;;
2022/12/02 05:17:37;;;;;;;20.2;10.8;;;;;;;0;86.1;99560;;;;
2022/12/02 05:28:37;;;;;;;20.2;10.8;;;;;;;0;86.3;99560;;;;
2022/12/02 05:38:37;;;;;;;16.2;10.4;;;;;;;-0.2;85.9;99570;;;;
2022/12/02 05:48:37;;;;;;;16.2;10.4;;;;;;;-0.2;85.3;99560;;;;
2022/12/02 05:59:37;;;;;;;16.2;10.4;;;;;;;0;85.6;99560;;;;
2022/12/02 06:09:37;;;;;;;15.2;9.5;;;;;;;-0.1;86.1;99560;;;;
2022/12/02 06:19:37;;;;;;;15.2;9.5;;;;;;;-0.2;86.7;99570;;;;
2022/12/02 06:29:37;;;;;;;15.2;9.5;;;;;;;-0.2;86.9;99570;;;;
2022/12/02 06:40:38;;;;;;;18.4;9.6;;;;;;;-0.3;86.8;99570;;;;
2022/12/02 06:50:37;;;;;;;18.4;9.6;;;;;;;-0.3;87.1;99580;;;;
2022/12/02 07:01:37;;;;;;;18.4;9.6;;;;;;;-0.3;86.9;99590;;;;
2022/12/02 07:12:37;;;;;;;20.7;11.5;;;;;;;-0.3;86.9;99590;;;;
2022/12/02 07:23:37;;;;;;;20.7;11.5;;;;;;;-0.3;86.8;99590;;;;
2022/12/02 07:34:37;;;;;;;20.7;11.5;;;;;;;-0.3;86.6;99590;;;;
2022/12/02 07:45:37;;;;;;;16.7;9.8;;;;;;;-0.5;86.6;99590;;;;
2022/12/02 07:55:37;;;;;;;16.7;9.8;;;;;;;-0.5;86.5;99590;;;;
2022/12/02 08:05:37;;;;;;;15.7;8;;;;;;;-0.5;86.7;99590;;;;
2022/12/02 08:16:37;;;;;;;15.7;8;;;;;;;-0.4;86.4;99600;;;;
2022/12/02 08:27:39;;;;;;;15.7;8;;;;;;;-0.5;86.3;99600;;;;
2022/12/02 08:38:37;;;;;;;12.1;7.1;;;;;;;-0.3;86.3;99610;;;;
2022/12/02 08:49:37;;;;;;;12.1;7.1;;;;;;;-0.4;86.4;99610;;;;
2022/12/02 08:59:37;;;;;;;12.1;7.1;;;;;;;-0.3;86.4;99610;;;;
2022/12/02 09:10:37;;;;;;;14.3;8.1;;;;;;;-0.1;86;99610;;;;
2022/12/02 09:21:37;;;;;;;14.3;8.1;;;;;;;-0.3;85.7;99600;;;;
2022/12/02 09:32:37;;;;;;;14.3;8.1;;;;;;;-0.1;85.5;99600;;;;
2022/12/02 09:43:37;;;;;;;13.4;7.7;;;;;;;-0.2;86.2;99600;;;;
2022/12/02 09:53:37;;;;;;;13.4;7.7;;;;;;;-0.1;85.6;99590;;;;
2022/12/02 10:04:37;;;;;;;13.4;7.7;;;;;;;-0.1;85.5;99590;;;;
2022/12/02 10:14:37;;;;;;;15.4;7.2;;;;;;;-0.2;85.9;99590;;;;
2022/12/02 10:25:38;;;;;;;15.4;7.2;;;;;;;-0.3;86.2;99580;;;;
2022/12/02 10:36:37;;;;;;;12.6;7.3;;;;;;;-0.2;85.8;99570;;;;
2022/12/02 10:46:37;;;;;;;12.6;7.3;;;;;;;-0.1;86.1;99570;;;;
2022/12/02 10:56:37;;;;;;;12.6;7.3;;;;;;;-0.1;85.7;99570;;;;
2022/12/02 11:07:37;;;;;;;17;8.8;;;;;;;-0.1;85.9;99560;;;;
2022/12/02 11:18:37;;;;;;;17;8.8;;;;;;;0;85.6;99560;;;;
2022/12/02 11:29:37;;;;;;;17;8.8;;;;;;;0;85.9;99560;;;;
2022/12/02 11:39:37;;;;;;;17.5;9;;;;;;;0;85.9;99560;;;;
2022/12/02 11:50:37;;;;;;;17.5;9;;;;;;;-0.1;85.9;99550;;;;
2022/12/02 12:01:37;;;;;;;17.5;9;;;;;;;0;85.5;99550;;;;
2022/12/02 12:12:38;;;;;;;15.3;8;;;;;;;0;84.7;99540;;;;
2022/12/02 12:23:39;;;;;;;15.3;8;;;;;;;0;84.9;99530;;;;
2022/12/02 12:34:37;;;;;;;15.3;8;;;;;;;0;84.7;99540;;;;
2022/12/02 12:45:37;;;;;;;12.7;7.2;;;;;;;0.1;84.7;99540;;;;
2022/12/02 12:55:37;;;;;;;12.7;7.2;;;;;;;-0.1;84.8;99540;;;;
2022/12/02 13:06:38;;;;;;;15.8;8.4;;;;;;;0;84.6;99530;;;;
2022/12/02 13:17:37;;;;;;;15.8;8.4;;;;;;;0;84.8;99530;;;;
2022/12/02 13:28:37;;;;;;;15.8;8.4;;;;;;;-0.2;84.6;99530;;;;
2022/12/02 13:39:38;;;;;;;14.6;8.3;;;;;;;-0.3;85;99530;;;;
2022/12/02 13:50:38;;;;;;;14.6;8.3;;;;;;;-0.4;85.5;99540;;;;
2022/12/02 14:01:37;;;;;;;14.6;8.3;;;;;;;-0.4;85.6;99540;;;;
2022/12/02 14:11:37;;;;;;;17.8;9.8;;;;;;;-0.5;86.2;99540;;;;
2022/12/02 14:22:37;;;;;;;17.8;9.8;;;;;;;-0.6;86.5;99550;;;;
2022/12/02 14:32:37;;;;;;;17.8;9.8;;;;;;;-0.6;87;99550;;;;
2022/12/02 14:43:37;;;;;;;21.3;13.2;;;;;;;-0.6;87;99550;;;;
2022/12/02 14:53:37;;;;;;;21.3;13.2;;;;;;;-0.7;87.1;99550;;;;
2022/12/02 15:03:38;;;;;;;21.3;13.2;;;;;;;-0.8;87.6;99550;;;;
2022/12/02 15:14:38;;;;;;;17.9;10.2;;;;;;;-0.7;87.6;99560;;;;
2022/12/02 15:24:37;;;;;;;17.9;10.2;;;;;;;-0.7;87.4;99560;;;;
2022/12/02 15:35:37;;;;;;;21.5;11.9;;;;;;;-0.7;87.7;99560;;;;
2022/12/02 15:46:38;;;;;;;21.5;11.9;;;;;;;-0.7;87.8;99570;;;;
2022/12/02 15:57:38;;;;;;;21.5;11.9;;;;;;;-0.7;87.9;99570;;;;
2022/12/02 16:07:38;;;;;;;22;11.2;;;;;;;-0.7;87.8;99570;;;;
2022/12/02 16:18:38;;;;;;;22;11.2;;;;;;;-0.7;87.7;99570;;;;
2022/12/02 16:29:37;;;;;;;22;11.2;;;;;;;-0.7;87.7;99570;;;;
2022/12/02 16:39:37;;;;;;;20.4;11.9;;;;;;;-0.7;87.6;99570;;;;
2022/12/02 16:49:37;;;;;;;20.4;11.9;;;;;;;-0.6;87.7;99570;;;;
2022/12/02 16:59:38;;;;;;;20.4;11.9;;;;;;;-0.8;88.4;99580;;;;
2022/12/02 17:10:38;;;;;;;27.5;13.8;;;;;;;-0.7;88.6;99580;;;;
2022/12/02 17:21:39;;;;;;;27.5;13.8;;;;;;;-0.7;88.6;99580;;;;
2022/12/02 17:31:38;;;;;;;27.5;13.8;;;;;;;-0.7;89;99580;;;;
2022/12/02 17:42:38;;;;;;;32.7;17.2;;;;;;;-0.8;89.2;99590;;;;
2022/12/02 17:53:37;;;;;;;32.7;17.2;;;;;;;-0.6;89;99600;;;;
2022/12/02 18:03:37;;;;;;;33.2;16;;;;;;;-0.7;89;99610;;;;
2022/12/02 18:14:38;;;;;;;33.2;16;;;;;;;-0.7;89.3;99610;;;;
2022/12/02 18:25:38;;;;;;;33.2;16;;;;;;;-0.7;89.5;99600;;;;
2022/12/02 18:36:37;;;;;;;31.9;17.5;;;;;;;-0.6;89.4;99610;;;;
2022/12/02 18:46:37;;;;;;;31.9;17.5;;;;;;;-0.6;89.3;99610;;;;
2022/12/02 18:56:37;;;;;;;31.9;17.5;;;;;;;-0.5;89.3;99610;;;;
2022/12/02 19:06:38;;;;;;;35.5;18.2;;;;;;;-0.6;89.3;99610;;;;
2022/12/02 19:17:38;;;;;;;35.5;18.2;;;;;;;-0.6;89.4;99610;;;;
2022/12/02 19:28:38;;;;;;;35.5;18.2;;;;;;;-0.7;89.6;99600;;;;
2022/12/02 19:39:37;;;;;;;36;18.5;;;;;;;-0.6;89.7;99600;;;;
2022/12/02 19:50:38;;;;;;;36;18.5;;;;;;;-0.6;89.5;99610;;;;
2022/12/02 20:01:38;;;;;;;36;18.5;;;;;;;-0.5;89.3;99610;;;;
2022/12/02 20:11:38;;;;;;;36.9;18;;;;;;;-0.4;89.2;99600;;;;
2022/12/02 20:21:38;;;;;;;36.9;18;;;;;;;-0.4;89;99600;;;;
2022/12/02 20:31:38;;;;;;;36.9;18;;;;;;;-0.3;88.9;99580;;;;
2022/12/02 20:41:38;;;;;;;39.4;18.4;;;;;;;-0.3;88.7;99580;;;;
2022/12/02 20:52:38;;;;;;;39.4;18.4;;;;;;;-0.4;88.8;99570;;;;
2022/12/02 21:02:38;;;;;;;39.4;18.4;;;;;;;-0.4;88.8;99580;;;;
2022/12/02 21:13:38;;;;;;;39.2;20.2;;;;;;;-0.3;88.6;99590;;;;
2022/12/02 21:23:38;;;;;;;39.2;20.2;;;;;;;-0.3;88.5;99590;;;;
2022/12/02 21:34:38;;;;;;;30.1;17.5;;;;;;;-0.3;88.4;99590;;;;
2022/12/02 21:44:38;;;;;;;30.1;17.5;;;;;;;-0.4;88.5;99590;;;;
2022/12/02 21:55:38;;;;;;;30.1;17.5;;;;;;;-0.3;88.4;99590;;;;
2022/12/02 22:06:38;;;;;;;34.1;18.7;;;;;;;-0.3;88.4;99600;;;;
2022/12/02 22:17:38;;;;;;;34.1;18.7;;;;;;;-0.2;88.3;99590;;;;
2022/12/02 22:27:38;;;;;;;34.1;18.7;;;;;;;-0.2;88.2;99590;;;;
2022/12/02 22:38:38;;;;;;;32.6;18.8;;;;;;;-0.2;88.3;99580;;;;
2022/12/02 22:48:38;;;;;;;32.6;18.8;;;;;;;-0.2;88.3;99590;;;;
2022/12/02 22:59:38;;;;;;;32.6;18.8;;;;;;;-0.3;88.6;99600;;;;
2022/12/02 23:09:38;;;;;;;29.4;16.1;;;;;;;-0.1;88.5;99590;;;;
2022/12/02 23:19:38;;;;;;;29.4;16.1;;;;;;;0;88.4;99590;;;;
2022/12/02 23:30:38;;;;;;;29.4;16.1;;;;;;;0;88.2;99580;;;;
2022/12/02 23:41:38;;;;;;;36.1;18.7;;;;;;;0.1;88.2;99580;;;;
2022/12/02 23:51:38;;;;;;;36.1;18.7;;;;;;;0.1;88;99580;;;;
